sensor_id;sensor_type;location;lat;lon;timestamp;pressure;altitude;pressure_sealevel;temperature;humidity
49529;BME280;35423;37.320;-121.762;2023-06-22T00:02:11;99811.26;;;38.33;9.80
49529;BME280;35423;37.320;-121.762;2023-06-22T00:04:39;99806.89;;;38.56;9.83
49529;BME280;35423;37.320;-121.762;2023-06-22T00:07:07;99813.53;;;38.79;9.78
49529;BME280;35423;37.320;-121.762;2023-06-22T00:09:34;99813.23;;;38.43;9.77
49529;BME280;35423;37.320;-121.762;2023-06-22T00:12:00;99812.72;;;38.63;9.82
49529;BME280;35423;37.320;-121.762;2023-06-22T00:14:26;99810.09;;;38.31;9.94
49529;BME280;35423;37.320;-121.762;2023-06-22T00:16:52;99809.03;;;38.76;10.04
49529;BME280;35423;37.320;-121.762;2023-06-22T00:19:18;99810.99;;;38.19;10.08
49529;BME280;35423;37.320;-121.762;2023-06-22T00:21:44;99809.68;;;37.97;10.09
49529;BME280;35423;37.320;-121.762;2023-06-22T00:24:08;99807.75;;;38.12;10.15
49529;BME280;35423;37.320;-121.762;2023-06-22T00:26:34;99804.09;;;38.24;10.22
49529;BME280;35423;37.320;-121.762;2023-06-22T00:29:05;99806.14;;;37.60;10.25
49529;BME280;35423;37.320;-121.762;2023-06-22T00:31:30;99805.59;;;37.44;10.30
49529;BME280;35423;37.320;-121.762;2023-06-22T00:33:58;99801.13;;;37.40;10.34
49529;BME280;35423;37.320;-121.762;2023-06-22T00:36:26;99798.98;;;37.80;10.26
49529;BME280;35423;37.320;-121.762;2023-06-22T00:38:50;99798.62;;;37.75;10.20
49529;BME280;35423;37.320;-121.762;2023-06-22T00:41:21;99793.36;;;37.16;10.20
49529;BME280;35423;37.320;-121.762;2023-06-22T00:43:46;99798.58;;;37.31;10.24
49529;BME280;35423;37.320;-121.762;2023-06-22T00:46:14;99801.77;;;37.49;9.99
49529;BME280;35423;37.320;-121.762;2023-06-22T00:48:40;99802.32;;;37.37;9.90
49529;BME280;35423;37.320;-121.762;2023-06-22T00:51:05;99798.02;;;37.00;9.86
49529;BME280;35423;37.320;-121.762;2023-06-22T00:53:38;99795.60;;;37.53;9.98
49529;BME280;35423;37.320;-121.762;2023-06-22T00:56:05;99795.62;;;36.93;10.25
49529;BME280;35423;37.320;-121.762;2023-06-22T00:58:30;99794.92;;;36.91;10.35
49529;BME280;35423;37.320;-121.762;2023-06-22T01:00:55;99788.71;;;37.07;10.41
49529;BME280;35423;37.320;-121.762;2023-06-22T01:03:24;99789.29;;;36.71;10.55
49529;BME280;35423;37.320;-121.762;2023-06-22T01:05:52;99785.86;;;36.56;10.52
49529;BME280;35423;37.320;-121.762;2023-06-22T01:08:29;99788.92;;;36.93;10.53
49529;BME280;35423;37.320;-121.762;2023-06-22T01:10:51;99790.27;;;36.48;10.76
49529;BME280;35423;37.320;-121.762;2023-06-22T01:13:25;99788.04;;;36.07;10.90
49529;BME280;35423;37.320;-121.762;2023-06-22T01:15:48;99792.26;;;36.47;10.99
49529;BME280;35423;37.320;-121.762;2023-06-22T01:18:19;99796.84;;;36.12;11.03
49529;BME280;35423;37.320;-121.762;2023-06-22T01:20:42;99795.55;;;35.93;11.15
49529;BME280;35423;37.320;-121.762;2023-06-22T01:23:16;99801.97;;;36.05;11.30
49529;BME280;35423;37.320;-121.762;2023-06-22T01:25:45;99801.20;;;35.86;11.41
49529;BME280;35423;37.320;-121.762;2023-06-22T01:28:10;99805.54;;;35.75;11.63
49529;BME280;35423;37.320;-121.762;2023-06-22T01:30:29;99801.52;;;35.59;11.86
49529;BME280;35423;37.320;-121.762;2023-06-22T01:33:00;99803.23;;;35.69;11.89
49529;BME280;35423;37.320;-121.762;2023-06-22T01:35:24;99803.50;;;35.51;11.80
49529;BME280;35423;37.320;-121.762;2023-06-22T01:37:56;99800.85;;;35.34;11.74
49529;BME280;35423;37.320;-121.762;2023-06-22T01:40:20;99801.52;;;34.91;11.88
49529;BME280;35423;37.320;-121.762;2023-06-22T01:42:54;99802.37;;;35.30;11.98
49529;BME280;35423;37.320;-121.762;2023-06-22T01:45:23;99807.38;;;34.66;12.19
49529;BME280;35423;37.320;-121.762;2023-06-22T01:47:47;99809.82;;;34.91;12.28
49529;BME280;35423;37.320;-121.762;2023-06-22T01:50:14;99815.46;;;34.57;12.35
49529;BME280;35423;37.320;-121.762;2023-06-22T01:52:45;99814.54;;;34.72;12.41
49529;BME280;35423;37.320;-121.762;2023-06-22T01:55:06;99814.70;;;34.23;12.59
49529;BME280;35423;37.320;-121.762;2023-06-22T01:57:31;99817.66;;;34.10;12.77
49529;BME280;35423;37.320;-121.762;2023-06-22T02:00:00;99818.99;;;34.20;12.99
49529;BME280;35423;37.320;-121.762;2023-06-22T02:02:23;99821.26;;;34.07;13.06
49529;BME280;35423;37.320;-121.762;2023-06-22T02:04:54;99819.40;;;33.94;13.13
49529;BME280;35423;37.320;-121.762;2023-06-22T02:07:15;99821.90;;;33.88;13.10
49529;BME280;35423;37.320;-121.762;2023-06-22T02:09:45;99825.36;;;33.76;13.08
49529;BME280;35423;37.320;-121.762;2023-06-22T02:12:12;99824.13;;;33.93;13.12
49529;BME280;35423;37.320;-121.762;2023-06-22T02:14:38;99827.31;;;33.98;13.15
49529;BME280;35423;37.320;-121.762;2023-06-22T02:17:04;99828.10;;;33.54;13.25
49529;BME280;35423;37.320;-121.762;2023-06-22T02:19:35;99828.23;;;33.70;13.15
49529;BME280;35423;37.320;-121.762;2023-06-22T02:21:57;99836.33;;;33.08;12.93
49529;BME280;35423;37.320;-121.762;2023-06-22T02:24:23;99828.55;;;33.28;13.01
49529;BME280;35423;37.320;-121.762;2023-06-22T02:26:50;99825.53;;;33.16;13.15
49529;BME280;35423;37.320;-121.762;2023-06-22T02:29:16;99827.98;;;32.98;13.38
49529;BME280;35423;37.320;-121.762;2023-06-22T02:31:43;99829.39;;;32.71;13.53
49529;BME280;35423;37.320;-121.762;2023-06-22T02:34:08;99830.80;;;32.31;13.57
49529;BME280;35423;37.320;-121.762;2023-06-22T02:36:35;99830.48;;;32.87;13.65
49529;BME280;35423;37.320;-121.762;2023-06-22T02:39:03;99831.60;;;32.73;13.57
49529;BME280;35423;37.320;-121.762;2023-06-22T02:41:28;99827.17;;;32.53;13.46
49529;BME280;35423;37.320;-121.762;2023-06-22T02:43:54;99826.85;;;32.44;13.59
49529;BME280;35423;37.320;-121.762;2023-06-22T02:46:19;99827.56;;;32.36;13.67
49529;BME280;35423;37.320;-121.762;2023-06-22T02:48:45;99821.94;;;32.23;13.78
49529;BME280;35423;37.320;-121.762;2023-06-22T02:51:14;99826.76;;;32.02;13.90
49529;BME280;35423;37.320;-121.762;2023-06-22T02:53:46;99829.45;;;32.16;14.02
49529;BME280;35423;37.320;-121.762;2023-06-22T02:56:12;99831.85;;;31.79;14.04
49529;BME280;35423;37.320;-121.762;2023-06-22T02:58:40;99831.75;;;31.91;14.13
49529;BME280;35423;37.320;-121.762;2023-06-22T03:01:18;99831.77;;;31.77;14.23
49529;BME280;35423;37.320;-121.762;2023-06-22T03:03:44;99832.59;;;31.59;14.45
49529;BME280;35423;37.320;-121.762;2023-06-22T03:06:11;99832.15;;;31.51;14.59
49529;BME280;35423;37.320;-121.762;2023-06-22T03:08:38;99834.01;;;31.46;14.66
49529;BME280;35423;37.320;-121.762;2023-06-22T03:11:05;99840.71;;;31.33;14.79
49529;BME280;35423;37.320;-121.762;2023-06-22T03:13:32;99839.33;;;31.64;14.87
49529;BME280;35423;37.320;-121.762;2023-06-22T03:15:58;99838.29;;;31.17;15.01
49529;BME280;35423;37.320;-121.762;2023-06-22T03:18:27;99841.07;;;31.10;15.01
49529;BME280;35423;37.320;-121.762;2023-06-22T03:20:54;99842.93;;;31.01;15.02
49529;BME280;35423;37.320;-121.762;2023-06-22T03:23:20;99847.83;;;30.86;15.09
49529;BME280;35423;37.320;-121.762;2023-06-22T03:25:45;99851.57;;;30.65;15.22
49529;BME280;35423;37.320;-121.762;2023-06-22T03:28:11;99853.17;;;30.69;15.39
49529;BME280;35423;37.320;-121.762;2023-06-22T03:30:37;99857.36;;;30.50;15.65
49529;BME280;35423;37.320;-121.762;2023-06-22T03:33:04;99856.54;;;30.32;15.86
49529;BME280;35423;37.320;-121.762;2023-06-22T03:35:34;99857.12;;;30.31;16.04
49529;BME280;35423;37.320;-121.762;2023-06-22T03:38:00;99859.16;;;30.16;16.13
49529;BME280;35423;37.320;-121.762;2023-06-22T03:40:27;99859.29;;;29.99;16.28
49529;BME280;35423;37.320;-121.762;2023-06-22T03:42:56;99858.05;;;29.67;16.41
49529;BME280;35423;37.320;-121.762;2023-06-22T03:45:22;99858.73;;;29.58;16.53
49529;BME280;35423;37.320;-121.762;2023-06-22T03:47:48;99860.55;;;29.54;16.57
49529;BME280;35423;37.320;-121.762;2023-06-22T03:50:17;99862.86;;;29.70;16.60
49529;BME280;35423;37.320;-121.762;2023-06-22T03:52:43;99860.75;;;29.55;16.66
49529;BME280;35423;37.320;-121.762;2023-06-22T03:55:11;99858.35;;;29.51;16.66
49529;BME280;35423;37.320;-121.762;2023-06-22T03:57:39;99862.57;;;29.68;16.76
49529;BME280;35423;37.320;-121.762;2023-06-22T04:00:12;99865.19;;;29.59;16.85
49529;BME280;35423;37.320;-121.762;2023-06-22T04:02:35;99864.51;;;29.20;17.03
49529;BME280;35423;37.320;-121.762;2023-06-22T04:05:02;99863.66;;;29.36;17.21
49529;BME280;35423;37.320;-121.762;2023-06-22T04:07:30;99862.24;;;29.32;17.42
49529;BME280;35423;37.320;-121.762;2023-06-22T04:09:57;99861.78;;;29.17;17.61
49529;BME280;35423;37.320;-121.762;2023-06-22T04:12:22;99863.05;;;29.09;17.76
49529;BME280;35423;37.320;-121.762;2023-06-22T04:14:51;99861.72;;;29.42;17.94
49529;BME280;35423;37.320;-121.762;2023-06-22T04:17:17;99861.28;;;28.87;18.15
49529;BME280;35423;37.320;-121.762;2023-06-22T04:19:42;99860.48;;;28.79;18.31
49529;BME280;35423;37.320;-121.762;2023-06-22T04:22:08;99863.68;;;28.65;18.52
49529;BME280;35423;37.320;-121.762;2023-06-22T04:24:32;99867.86;;;28.58;18.65
49529;BME280;35423;37.320;-121.762;2023-06-22T04:27:00;99870.43;;;28.48;18.79
49529;BME280;35423;37.320;-121.762;2023-06-22T04:29:29;99871.37;;;28.54;18.96
49529;BME280;35423;37.320;-121.762;2023-06-22T04:31:56;99873.05;;;28.75;19.04
49529;BME280;35423;37.320;-121.762;2023-06-22T04:34:20;99873.58;;;28.23;19.10
49529;BME280;35423;37.320;-121.762;2023-06-22T04:36:47;99876.94;;;28.13;19.20
49529;BME280;35423;37.320;-121.762;2023-06-22T04:39:12;99881.90;;;28.45;19.28
49529;BME280;35423;37.320;-121.762;2023-06-22T04:41:38;99884.85;;;28.33;19.24
49529;BME280;35423;37.320;-121.762;2023-06-22T04:44:02;99882.17;;;28.22;19.15
49529;BME280;35423;37.320;-121.762;2023-06-22T04:46:29;99880.42;;;28.07;19.23
49529;BME280;35423;37.320;-121.762;2023-06-22T04:48:55;99885.27;;;27.93;19.33
49529;BME280;35423;37.320;-121.762;2023-06-22T04:51:21;99887.05;;;27.82;19.41
49529;BME280;35423;37.320;-121.762;2023-06-22T04:53:47;99881.90;;;27.72;19.53
49529;BME280;35423;37.320;-121.762;2023-06-22T04:56:13;99887.21;;;27.70;19.57
49529;BME280;35423;37.320;-121.762;2023-06-22T04:58:38;99891.16;;;27.66;19.59
49529;BME280;35423;37.320;-121.762;2023-06-22T05:01:04;99888.54;;;27.90;19.63
49529;BME280;35423;37.320;-121.762;2023-06-22T05:03:31;99886.95;;;27.57;19.70
49529;BME280;35423;37.320;-121.762;2023-06-22T05:05:56;99889.50;;;27.98;19.77
49529;BME280;35423;37.320;-121.762;2023-06-22T05:08:26;99891.40;;;27.36;19.90
49529;BME280;35423;37.320;-121.762;2023-06-22T05:10:55;99889.41;;;27.31;19.85
49529;BME280;35423;37.320;-121.762;2023-06-22T05:13:21;99891.28;;;27.26;19.93
49529;BME280;35423;37.320;-121.762;2023-06-22T05:15:48;99889.01;;;27.49;20.04
49529;BME280;35423;37.320;-121.762;2023-06-22T05:18:18;99886.25;;;27.44;20.11
49529;BME280;35423;37.320;-121.762;2023-06-22T05:20:44;99883.95;;;27.28;20.03
49529;BME280;35423;37.320;-121.762;2023-06-22T05:23:09;99886.12;;;27.46;20.14
49529;BME280;35423;37.320;-121.762;2023-06-22T05:25:33;99885.33;;;27.12;20.16
49529;BME280;35423;37.320;-121.762;2023-06-22T05:28:00;99887.67;;;27.26;20.25
49529;BME280;35423;37.320;-121.762;2023-06-22T05:30:28;99887.81;;;26.84;20.31
49529;BME280;35423;37.320;-121.762;2023-06-22T05:33:00;99885.24;;;27.28;20.35
49529;BME280;35423;37.320;-121.762;2023-06-22T05:35:36;99884.53;;;27.16;20.46
49529;BME280;35423;37.320;-121.762;2023-06-22T05:38:00;99883.20;;;27.05;20.56
49529;BME280;35423;37.320;-121.762;2023-06-22T05:40:27;99882.00;;;26.70;20.66
49529;BME280;35423;37.320;-121.762;2023-06-22T05:42:52;99879.45;;;26.83;20.71
49529;BME280;35423;37.320;-121.762;2023-06-22T05:45:18;99878.69;;;26.97;20.77
49529;BME280;35423;37.320;-121.762;2023-06-22T05:47:48;99878.40;;;26.44;20.87
49529;BME280;35423;37.320;-121.762;2023-06-22T05:50:14;99873.24;;;26.56;20.92
49529;BME280;35423;37.320;-121.762;2023-06-22T05:52:43;99869.94;;;26.49;20.98
49529;BME280;35423;37.320;-121.762;2023-06-22T05:55:10;99869.41;;;26.44;21.04
49529;BME280;35423;37.320;-121.762;2023-06-22T05:57:39;99865.72;;;26.36;21.10
49529;BME280;35423;37.320;-121.762;2023-06-22T06:00:04;99864.65;;;26.26;21.19
49529;BME280;35423;37.320;-121.762;2023-06-22T06:02:30;99865.21;;;26.34;21.31
49529;BME280;35423;37.320;-121.762;2023-06-22T06:04:56;99865.11;;;26.04;21.43
49529;BME280;35423;37.320;-121.762;2023-06-22T06:07:24;99861.03;;;26.48;21.47
49529;BME280;35423;37.320;-121.762;2023-06-22T06:09:50;99862.04;;;26.35;21.58
49529;BME280;35423;37.320;-121.762;2023-06-22T06:12:18;99865.37;;;26.22;21.67
49529;BME280;35423;37.320;-121.762;2023-06-22T06:14:45;99865.46;;;26.16;21.73
49529;BME280;35423;37.320;-121.762;2023-06-22T06:17:11;99864.82;;;26.12;21.81
49529;BME280;35423;37.320;-121.762;2023-06-22T06:19:36;99863.79;;;25.53;21.90
49529;BME280;35423;37.320;-121.762;2023-06-22T06:22:01;99860.18;;;25.71;21.93
49529;BME280;35423;37.320;-121.762;2023-06-22T06:24:27;99858.59;;;25.87;21.99
49529;BME280;35423;37.320;-121.762;2023-06-22T06:26:53;99858.42;;;25.34;22.01
49529;BME280;35423;37.320;-121.762;2023-06-22T06:29:25;99851.73;;;25.78;22.07
49529;BME280;35423;37.320;-121.762;2023-06-22T06:31:51;99844.48;;;26.21;22.17
49529;BME280;35423;37.320;-121.762;2023-06-22T06:34:18;99844.82;;;25.63;22.26
49529;BME280;35423;37.320;-121.762;2023-06-22T06:36:45;99844.53;;;25.80;22.31
49529;BME280;35423;37.320;-121.762;2023-06-22T06:39:11;99845.10;;;25.44;22.41
49529;BME280;35423;37.320;-121.762;2023-06-22T06:41:37;99840.07;;;25.30;22.47
49529;BME280;35423;37.320;-121.762;2023-06-22T06:44:07;99837.04;;;25.21;22.54
49529;BME280;35423;37.320;-121.762;2023-06-22T06:46:37;99831.70;;;25.37;22.59
49529;BME280;35423;37.320;-121.762;2023-06-22T06:49:03;99831.86;;;25.56;22.61
49529;BME280;35423;37.320;-121.762;2023-06-22T06:51:33;99832.74;;;25.02;22.65
49529;BME280;35423;37.320;-121.762;2023-06-22T06:54:03;99831.06;;;25.44;22.72
49529;BME280;35423;37.320;-121.762;2023-06-22T06:56:31;99829.21;;;24.87;22.80
49529;BME280;35423;37.320;-121.762;2023-06-22T06:59:03;99828.18;;;25.00;22.85
49529;BME280;35423;37.320;-121.762;2023-06-22T07:01:30;99824.47;;;25.18;22.85
49529;BME280;35423;37.320;-121.762;2023-06-22T07:03:56;99824.54;;;25.07;22.97
49529;BME280;35423;37.320;-121.762;2023-06-22T07:06:24;99824.39;;;24.76;23.01
49529;BME280;35423;37.320;-121.762;2023-06-22T07:08:53;99824.59;;;24.99;23.06
49529;BME280;35423;37.320;-121.762;2023-06-22T07:11:18;99823.86;;;24.87;23.13
49529;BME280;35423;37.320;-121.762;2023-06-22T07:13:46;99819.49;;;24.75;23.19
49529;BME280;35423;37.320;-121.762;2023-06-22T07:16:13;99817.10;;;24.72;23.13
49529;BME280;35423;37.320;-121.762;2023-06-22T07:18:43;99815.96;;;24.37;23.18
49529;BME280;35423;37.320;-121.762;2023-06-22T07:21:15;99812.28;;;24.35;23.20
49529;BME280;35423;37.320;-121.762;2023-06-22T07:23:44;99807.36;;;24.54;23.23
49529;BME280;35423;37.320;-121.762;2023-06-22T07:26:07;99807.10;;;24.46;23.27
49529;BME280;35423;37.320;-121.762;2023-06-22T07:28:32;99804.81;;;24.42;23.32
49529;BME280;35423;37.320;-121.762;2023-06-22T07:31:00;99801.52;;;24.34;23.33
49529;BME280;35423;37.320;-121.762;2023-06-22T07:33:26;99797.12;;;24.28;23.36
49529;BME280;35423;37.320;-121.762;2023-06-22T07:35:54;99791.91;;;24.26;23.41
49529;BME280;35423;37.320;-121.762;2023-06-22T07:38:20;99785.90;;;24.61;23.43
49529;BME280;35423;37.320;-121.762;2023-06-22T07:40:47;99790.28;;;24.10;23.52
49529;BME280;35423;37.320;-121.762;2023-06-22T07:43:12;99792.64;;;24.01;23.58
49529;BME280;35423;37.320;-121.762;2023-06-22T07:45:48;99795.14;;;24.20;23.68
49529;BME280;35423;37.320;-121.762;2023-06-22T07:48:16;99793.24;;;23.89;23.76
49529;BME280;35423;37.320;-121.762;2023-06-22T07:50:43;99786.69;;;24.08;23.69
49529;BME280;35423;37.320;-121.762;2023-06-22T07:53:07;99780.10;;;23.47;23.70
49529;BME280;35423;37.320;-121.762;2023-06-22T07:55:33;99778.51;;;24.10;23.78
49529;BME280;35423;37.320;-121.762;2023-06-22T07:58:03;99775.24;;;24.04;23.83
49529;BME280;35423;37.320;-121.762;2023-06-22T08:00:29;99770.88;;;23.50;23.90
49529;BME280;35423;37.320;-121.762;2023-06-22T08:02:56;99766.40;;;23.44;23.97
49529;BME280;35423;37.320;-121.762;2023-06-22T08:05:22;99767.26;;;23.92;23.98
49529;BME280;35423;37.320;-121.762;2023-06-22T08:07:51;99762.56;;;23.83;24.03
49529;BME280;35423;37.320;-121.762;2023-06-22T08:10:23;99767.91;;;23.74;24.13
49529;BME280;35423;37.320;-121.762;2023-06-22T08:13:01;99773.56;;;23.63;24.21
49529;BME280;35423;37.320;-121.762;2023-06-22T08:15:12;99777.85;;;23.51;24.28
49529;BME280;35423;37.320;-121.762;2023-06-22T08:17:38;99779.93;;;23.47;24.35
49529;BME280;35423;37.320;-121.762;2023-06-22T08:20:11;99779.62;;;23.21;24.39
49529;BME280;35423;37.320;-121.762;2023-06-22T08:22:35;99780.06;;;22.90;24.46
49529;BME280;35423;37.320;-121.762;2023-06-22T08:25:01;99776.29;;;23.31;24.46
49529;BME280;35423;37.320;-121.762;2023-06-22T08:27:27;99771.81;;;23.32;24.43
49529;BME280;35423;37.320;-121.762;2023-06-22T08:29:56;99769.29;;;23.33;24.44
49529;BME280;35423;37.320;-121.762;2023-06-22T08:32:22;99763.80;;;23.56;24.54
49529;BME280;35423;37.320;-121.762;2023-06-22T08:34:48;99765.87;;;23.29;24.53
49529;BME280;35423;37.320;-121.762;2023-06-22T08:37:12;99765.72;;;23.05;24.56
49529;BME280;35423;37.320;-121.762;2023-06-22T08:39:38;99764.39;;;23.22;24.59
49529;BME280;35423;37.320;-121.762;2023-06-22T08:42:07;99762.95;;;23.19;24.63
49529;BME280;35423;37.320;-121.762;2023-06-22T08:44:32;99760.60;;;23.18;24.63
49529;BME280;35423;37.320;-121.762;2023-06-22T08:46:58;99760.85;;;23.44;24.61
49529;BME280;35423;37.320;-121.762;2023-06-22T08:49:23;99761.91;;;23.09;24.64
49529;BME280;35423;37.320;-121.762;2023-06-22T08:51:49;99762.90;;;23.33;24.68
49529;BME280;35423;37.320;-121.762;2023-06-22T08:54:16;99764.31;;;22.88;24.94
49529;BME280;35423;37.320;-121.762;2023-06-22T08:56:47;99764.71;;;23.08;24.94
49529;BME280;35423;37.320;-121.762;2023-06-22T08:59:13;99765.77;;;23.27;25.02
49529;BME280;35423;37.320;-121.762;2023-06-22T09:01:38;99765.51;;;22.98;25.15
49529;BME280;35423;37.320;-121.762;2023-06-22T09:04:05;99762.51;;;22.90;25.22
49529;BME280;35423;37.320;-121.762;2023-06-22T09:06:32;99762.40;;;22.88;25.22
49529;BME280;35423;37.320;-121.762;2023-06-22T09:09:02;99764.98;;;23.10;25.26
49529;BME280;35423;37.320;-121.762;2023-06-22T09:11:32;99765.02;;;23.09;25.26
49529;BME280;35423;37.320;-121.762;2023-06-22T09:13:53;99763.20;;;23.05;25.42
49529;BME280;35423;37.320;-121.762;2023-06-22T09:16:21;99758.67;;;23.04;25.45
49529;BME280;35423;37.320;-121.762;2023-06-22T09:18:48;99757.61;;;22.54;25.47
49529;BME280;35423;37.320;-121.762;2023-06-22T09:21:15;99757.15;;;23.05;25.43
49529;BME280;35423;37.320;-121.762;2023-06-22T09:23:40;99756.22;;;22.59;25.35
49529;BME280;35423;37.320;-121.762;2023-06-22T09:26:09;99752.29;;;22.85;25.35
49529;BME280;35423;37.320;-121.762;2023-06-22T09:28:33;99753.08;;;22.84;25.45
49529;BME280;35423;37.320;-121.762;2023-06-22T09:30:59;99754.37;;;22.65;25.43
49529;BME280;35423;37.320;-121.762;2023-06-22T09:33:25;99754.45;;;23.25;25.40
49529;BME280;35423;37.320;-121.762;2023-06-22T09:35:52;99754.16;;;23.22;25.47
49529;BME280;35423;37.320;-121.762;2023-06-22T09:38:19;99756.00;;;23.01;25.46
49529;BME280;35423;37.320;-121.762;2023-06-22T09:40:50;99755.37;;;23.28;25.40
49529;BME280;35423;37.320;-121.762;2023-06-22T09:43:16;99756.69;;;23.32;25.37
49529;BME280;35423;37.320;-121.762;2023-06-22T09:45:51;99756.91;;;22.00;25.35
49529;BME280;35423;37.320;-121.762;2023-06-22T09:48:20;99752.65;;;22.68;24.81
49529;BME280;35423;37.320;-121.762;2023-06-22T09:50:52;99751.54;;;23.47;24.51
49529;BME280;35423;37.320;-121.762;2023-06-22T09:53:27;99750.63;;;23.64;24.74
49529;BME280;35423;37.320;-121.762;2023-06-22T09:55:52;99749.55;;;23.66;24.99
49529;BME280;35423;37.320;-121.762;2023-06-22T09:58:30;99750.32;;;23.47;25.24
49529;BME280;35423;37.320;-121.762;2023-06-22T10:01:04;99747.03;;;23.31;25.51
49529;BME280;35423;37.320;-121.762;2023-06-22T10:03:17;99748.84;;;22.95;25.55
49529;BME280;35423;37.320;-121.762;2023-06-22T10:05:46;99748.92;;;23.29;25.52
49529;BME280;35423;37.320;-121.762;2023-06-22T10:08:08;99747.97;;;23.02;25.54
49529;BME280;35423;37.320;-121.762;2023-06-22T10:10:33;99747.67;;;23.51;25.51
49529;BME280;35423;37.320;-121.762;2023-06-22T10:13:07;99746.73;;;23.20;25.62
49529;BME280;35423;37.320;-121.762;2023-06-22T10:15:24;99746.88;;;23.14;25.69
49529;BME280;35423;37.320;-121.762;2023-06-22T10:17:48;99748.01;;;22.99;25.99
49529;BME280;35423;37.320;-121.762;2023-06-22T10:20:15;99744.95;;;22.97;25.89
49529;BME280;35423;37.320;-121.762;2023-06-22T10:22:38;99742.95;;;23.14;25.98
49529;BME280;35423;37.320;-121.762;2023-06-22T10:25:16;99744.51;;;23.02;26.08
49529;BME280;35423;37.320;-121.762;2023-06-22T10:27:38;99744.68;;;22.66;26.24
49529;BME280;35423;37.320;-121.762;2023-06-22T10:30:05;99743.41;;;22.79;26.33
49529;BME280;35423;37.320;-121.762;2023-06-22T10:32:26;99741.21;;;22.48;26.42
49529;BME280;35423;37.320;-121.762;2023-06-22T10:35:00;99738.08;;;22.43;26.48
49529;BME280;35423;37.320;-121.762;2023-06-22T10:37:28;99737.08;;;22.57;26.56
49529;BME280;35423;37.320;-121.762;2023-06-22T10:39:56;99736.43;;;22.49;26.69
49529;BME280;35423;37.320;-121.762;2023-06-22T10:42:22;99732.38;;;22.41;26.74
49529;BME280;35423;37.320;-121.762;2023-06-22T10:44:51;99732.33;;;22.72;26.77
49529;BME280;35423;37.320;-121.762;2023-06-22T10:47:18;99733.11;;;22.49;26.72
49529;BME280;35423;37.320;-121.762;2023-06-22T10:49:42;99734.97;;;22.51;26.66
49529;BME280;35423;37.320;-121.762;2023-06-22T10:52:10;99732.13;;;22.76;26.62
49529;BME280;35423;37.320;-121.762;2023-06-22T10:54:41;99731.52;;;22.52;26.65
49529;BME280;35423;37.320;-121.762;2023-06-22T10:57:06;99730.93;;;22.53;26.64
49529;BME280;35423;37.320;-121.762;2023-06-22T10:59:33;99732.90;;;22.64;26.56
49529;BME280;35423;37.320;-121.762;2023-06-22T11:02:00;99737.19;;;22.63;26.52
49529;BME280;35423;37.320;-121.762;2023-06-22T11:04:31;99741.07;;;22.60;26.53
49529;BME280;35423;37.320;-121.762;2023-06-22T11:06:56;99741.92;;;22.57;26.51
49529;BME280;35423;37.320;-121.762;2023-06-22T11:09:20;99740.71;;;22.46;26.54
49529;BME280;35423;37.320;-121.762;2023-06-22T11:11:51;99737.30;;;22.71;26.55
49529;BME280;35423;37.320;-121.762;2023-06-22T11:14:16;99731.85;;;22.36;26.59
49529;BME280;35423;37.320;-121.762;2023-06-22T11:16:42;99730.07;;;22.23;26.72
49529;BME280;35423;37.320;-121.762;2023-06-22T11:19:07;99729.11;;;22.18;26.63
49529;BME280;35423;37.320;-121.762;2023-06-22T11:21:36;99733.64;;;22.61;26.65
49529;BME280;35423;37.320;-121.762;2023-06-22T11:24:02;99738.65;;;21.94;26.78
49529;BME280;35423;37.320;-121.762;2023-06-22T11:26:30;99739.13;;;21.81;26.97
49529;BME280;35423;37.320;-121.762;2023-06-22T11:28:57;99736.84;;;21.73;27.08
49529;BME280;35423;37.320;-121.762;2023-06-22T11:31:23;99737.04;;;21.69;27.18
49529;BME280;35423;37.320;-121.762;2023-06-22T11:33:47;99739.39;;;22.09;27.33
49529;BME280;35423;37.320;-121.762;2023-06-22T11:36:18;99738.21;;;21.93;27.20
49529;BME280;35423;37.320;-121.762;2023-06-22T11:38:46;99742.95;;;21.62;27.26
49529;BME280;35423;37.320;-121.762;2023-06-22T11:41:14;99741.62;;;22.07;27.32
49529;BME280;35423;37.320;-121.762;2023-06-22T11:43:41;99739.52;;;22.01;27.40
49529;BME280;35423;37.320;-121.762;2023-06-22T11:46:06;99737.75;;;21.42;27.54
49529;BME280;35423;37.320;-121.762;2023-06-22T11:48:34;99743.75;;;21.90;27.44
49529;BME280;35423;37.320;-121.762;2023-06-22T11:50:59;99742.76;;;21.42;27.43
49529;BME280;35423;37.320;-121.762;2023-06-22T11:53:26;99745.26;;;21.88;27.50
49529;BME280;35423;37.320;-121.762;2023-06-22T11:55:57;99744.55;;;21.96;27.40
49529;BME280;35423;37.320;-121.762;2023-06-22T11:58:23;99741.89;;;21.98;27.36
49529;BME280;35423;37.320;-121.762;2023-06-22T12:00:49;99741.41;;;21.97;27.36
49529;BME280;35423;37.320;-121.762;2023-06-22T12:03:15;99741.15;;;21.71;27.43
49529;BME280;35423;37.320;-121.762;2023-06-22T12:05:40;99739.86;;;21.96;27.40
49529;BME280;35423;37.320;-121.762;2023-06-22T12:08:07;99741.25;;;21.82;27.29
49529;BME280;35423;37.320;-121.762;2023-06-22T12:10:36;99743.70;;;22.02;27.25
49529;BME280;35423;37.320;-121.762;2023-06-22T12:13:02;99744.44;;;21.82;27.21
49529;BME280;35423;37.320;-121.762;2023-06-22T12:15:31;99746.72;;;21.56;27.19
49529;BME280;35423;37.320;-121.762;2023-06-22T12:17:57;99748.96;;;21.77;27.20
49529;BME280;35423;37.320;-121.762;2023-06-22T12:20:22;99751.36;;;21.65;27.28
49529;BME280;35423;37.320;-121.762;2023-06-22T12:22:50;99753.83;;;21.55;27.45
49529;BME280;35423;37.320;-121.762;2023-06-22T12:25:15;99753.40;;;21.72;27.50
49529;BME280;35423;37.320;-121.762;2023-06-22T12:27:41;99750.94;;;21.84;27.60
49529;BME280;35423;37.320;-121.762;2023-06-22T12:30:09;99748.32;;;21.62;27.62